Time,TemperatureF,DewpointF,PressureIn,WindDirection,WindDirectionDegrees,WindSpeedMPH,WindSpeedGustMPH,Humidity,HourlyPrecipIn,Conditions,Clouds,dailyrainin,SoftwareType,DateUTC
2013-01-22 00:00:00,21.7,19.5,29.72,West,270,0.0,2.0,91,0.00,,,-99.99,Weather View 32 v60,2013-01-22 05:00:00,
2013-01-22 00:05:00,21.7,19.5,29.72,West,270,0.0,2.0,91,0.00,,,-99.99,Weather View 32 v60,2013-01-22 05:05:00,
2013-01-22 00:10:00,21.7,19.5,29.71,NNW,338,0.0,2.0,91,0.00,,,-99.99,Weather View 32 v60,2013-01-22 05:10:00,
2013-01-22 00:15:00,21.7,19.5,29.72,NW,315,0.0,2.0,91,0.00,,,-99.99,Weather View 32 v60,2013-01-22 05:15:00,
2013-01-22 00:20:00,21.7,19.5,29.72,NW,315,0.0,2.0,91,0.00,,,-99.99,Weather View 32 v60,2013-01-22 05:20:00,
2013-01-22 00:25:00,21.7,19.5,29.73,NW,315,0.0,2.0,91,0.00,,,-99.99,Weather View 32 v60,2013-01-22 05:25:00,
2013-01-22 00:30:00,21.7,19.5,29.74,West,270,2.0,3.0,91,0.00,,,-99.99,Weather View 32 v60,2013-01-22 05:30:00,
2013-01-22 00:35:00,21.7,19.5,29.74,WSW,248,1.0,3.0,91,0.00,,,-99.99,Weather View 32 v60,2013-01-22 05:35:00,
2013-01-22 00:40:00,21.8,19.6,29.74,WNW,293,1.0,3.0,91,0.00,,,-99.99,Weather View 32 v60,2013-01-22 05:40:00,
2013-01-22 00:45:00,21.8,19.8,29.74,West,270,0.0,3.0,92,0.00,,,-99.99,Weather View 32 v60,2013-01-22 05:45:00,
2013-01-22 00:50:00,21.9,19.9,29.73,WNW,293,1.0,3.0,92,0.00,,,-99.99,Weather View 32 v60,2013-01-22 05:50:00,
2013-01-22 00:55:00,22.0,20.0,29.73,WNW,293,2.0,3.0,92,0.00,,,-99.99,Weather View 32 v60,2013-01-22 05:55:00,
2013-01-22 01:00:00,22.1,20.1,29.74,NW,315,0.0,3.0,92,0.00,,,-99.99,Weather View 32 v60,2013-01-22 06:00:00,
2013-01-22 01:05:00,22.1,20.1,29.73,WSW,248,1.0,3.0,92,0.00,,,-99.99,Weather View 32 v60,2013-01-22 06:05:00,
2013-01-22 01:10:00,22.1,20.1,29.73,SW,225,0.0,3.0,92,0.00,,,-99.99,Weather View 32 v60,2013-01-22 06:10:00,
2013-01-22 01:15:00,22.0,19.8,29.72,SW,225,0.0,3.0,91,0.00,,,-99.99,Weather View 32 v60,2013-01-22 06:15:00,
2013-01-22 01:20:00,22.0,19.8,29.73,SW,225,0.0,3.0,91,0.00,,,-99.99,Weather View 32 v60,2013-01-22 06:20:00,
2013-01-22 01:25:00,21.8,19.6,29.73,SW,225,0.0,3.0,91,0.00,,,-99.99,Weather View 32 v60,2013-01-22 06:25:00,
2013-01-22 01:30:00,21.7,19.5,29.73,SW,225,0.0,3.0,91,0.00,,,-99.99,Weather View 32 v60,2013-01-22 06:30:00,
2013-01-22 01:35:00,21.5,19.3,29.72,SW,225,0.0,3.0,91,0.00,,,-99.99,Weather View 32 v60,2013-01-22 06:35:00,
2013-01-22 01:40:00,21.2,18.7,29.72,SW,225,0.0,3.0,90,0.00,,,-99.99,Weather View 32 v60,2013-01-22 06:40:00,
2013-01-22 01:45:00,20.9,18.4,29.72,SW,225,0.0,3.0,90,0.00,,,-99.99,Weather View 32 v60,2013-01-22 06:45:00,
2013-01-22 01:50:00,20.7,18.2,29.72,SW,225,0.0,3.0,90,0.00,,,-99.99,Weather View 32 v60,2013-01-22 06:50:00,
2013-01-22 01:55:00,20.5,18.3,29.71,SW,225,0.0,3.0,91,0.00,,,-99.99,Weather View 32 v60,2013-01-22 06:55:00,
2013-01-22 02:00:00,20.2,17.7,29.72,SW,225,0.0,3.0,90,0.00,,,-99.99,Weather View 32 v60,2013-01-22 07:00:00,
2013-01-22 02:05:00,20.0,17.5,29.71,SW,225,0.0,1.0,90,0.00,,,-99.99,Weather View 32 v60,2013-01-22 07:05:00,
2013-01-22 02:10:00,19.7,17.2,29.71,SW,225,0.0,0.0,90,0.00,,,-99.99,Weather View 32 v60,2013-01-22 07:10:00,
2013-01-22 02:15:00,19.6,17.1,29.71,SW,225,0.0,0.0,90,0.00,,,-99.99,Weather View 32 v60,2013-01-22 07:15:00,
2013-01-22 02:20:00,19.4,17.2,29.71,SW,225,0.0,0.0,91,0.00,,,-99.99,Weather View 32 v60,2013-01-22 07:20:00,
2013-01-22 02:25:00,19.4,17.2,29.72,SW,225,0.0,0.0,91,0.00,,,-99.99,Weather View 32 v60,2013-01-22 07:25:00,
2013-01-22 02:30:00,19.3,17.1,29.71,SW,225,0.0,0.0,91,0.00,,,-99.99,Weather View 32 v60,2013-01-22 07:30:00,
2013-01-22 02:35:00,19.3,17.4,29.71,SW,225,0.0,0.0,92,0.00,,,-99.99,Weather View 32 v60,2013-01-22 07:35:00,
2013-01-22 02:40:00,19.3,17.4,29.71,WSW,248,1.0,1.0,92,0.00,,,-99.99,Weather View 32 v60,2013-01-22 07:40:00,
2013-01-22 02:45:00,19.4,17.5,29.71,WSW,248,1.0,3.0,92,0.00,,,-99.99,Weather View 32 v60,2013-01-22 07:45:00,
2013-01-22 02:50:00,19.6,17.9,29.72,WSW,248,1.0,3.0,93,0.00,,,-99.99,Weather View 32 v60,2013-01-22 07:50:00,
2013-01-22 02:55:00,19.8,18.1,29.71,WNW,293,1.0,3.0,93,0.00,,,-99.99,Weather View 32 v60,2013-01-22 07:55:00,
2013-01-22 03:00:00,19.9,18.2,29.71,North,0,3.0,3.0,93,0.00,,,-99.99,Weather View 32 v60,2013-01-22 08:00:00,
2013-01-22 03:05:00,20.0,18.3,29.71,North,0,0.0,3.0,93,0.00,,,-99.99,Weather View 32 v60,2013-01-22 08:05:00,
2013-01-22 03:10:00,20.1,18.4,29.72,North,0,1.0,3.0,93,0.00,,,-99.99,Weather View 32 v60,2013-01-22 08:10:00,
2013-01-22 03:15:00,20.2,18.8,29.72,NNW,338,1.0,4.0,94,0.00,,,-99.99,Weather View 32 v60,2013-01-22 08:15:00,
2013-01-22 03:20:00,20.3,18.9,29.72,NNW,338,1.0,4.0,94,0.00,,,-99.99,Weather View 32 v60,2013-01-22 08:20:00,
2013-01-22 03:25:00,20.3,18.6,29.72,WNW,293,2.0,4.0,93,0.00,,,-99.99,Weather View 32 v60,2013-01-22 08:25:00,
2013-01-22 03:30:00,20.2,18.5,29.71,WNW,293,2.0,4.0,93,0.00,,,-99.99,Weather View 32 v60,2013-01-22 08:30:00,
2013-01-22 03:35:00,20.2,18.5,29.72,NW,315,2.0,4.0,93,0.00,,,-99.99,Weather View 32 v60,2013-01-22 08:35:00,
2013-01-22 03:40:00,20.1,18.4,29.72,West,270,2.0,4.0,93,0.00,,,-99.99,Weather View 32 v60,2013-01-22 08:40:00,
2013-01-22 03:50:00,20.0,18.3,29.71,SW,225,0.0,4.0,93,0.00,,,-99.99,Weather View 32 v60,2013-01-22 08:50:00,
2013-01-22 03:55:00,19.8,18.1,29.72,SSW,203,0.0,4.0,93,0.00,,,-99.99,Weather View 32 v60,2013-01-22 08:55:00,
2013-01-22 04:00:00,19.7,18.0,29.72,SSW,203,0.0,4.0,93,0.00,,,-99.99,Weather View 32 v60,2013-01-22 09:00:00,
2013-01-22 04:05:00,19.6,17.9,29.72,SSW,203,0.0,4.0,93,0.00,,,-99.99,Weather View 32 v60,2013-01-22 09:05:00,
2013-01-22 04:10:00,19.5,17.8,29.72,South,180,0.0,4.0,93,0.00,,,-99.99,Weather View 32 v60,2013-01-22 09:10:00,
2013-01-22 04:15:00,19.4,17.7,29.71,South,180,0.0,4.0,93,0.00,,,-99.99,Weather View 32 v60,2013-01-22 09:15:00,
2013-01-22 04:20:00,19.4,17.7,29.72,SSW,203,0.0,4.0,93,0.00,,,-99.99,Weather View 32 v60,2013-01-22 09:20:00,
2013-01-22 04:25:00,19.3,17.6,29.72,SSW,203,0.0,4.0,93,0.00,,,-99.99,Weather View 32 v60,2013-01-22 09:25:00,
2013-01-22 04:30:00,19.3,17.6,29.72,SSW,203,0.0,3.0,93,0.00,,,-99.99,Weather View 32 v60,2013-01-22 09:30:00,
2013-01-22 04:40:00,19.2,17.5,29.73,SSW,203,0.0,3.0,93,0.00,,,-99.99,Weather View 32 v60,2013-01-22 09:40:00,
2013-01-22 04:45:00,20.0,18.3,29.71,WSW,248,0.0,4.0,93,0.00,,,-99.99,Weather View 32 v60,2013-01-22 09:45:00,
2013-01-22 04:55:00,18.8,17.1,29.73,SSW,203,0.0,0.0,93,0.00,,,-99.99,Weather View 32 v60,2013-01-22 09:55:00,
2013-01-22 05:00:00,18.7,17.0,29.73,SSW,203,0.0,0.0,93,0.00,,,-99.99,Weather View 32 v60,2013-01-22 10:00:00,
2013-01-22 05:05:00,18.7,17.0,29.72,SSW,203,0.0,0.0,93,0.00,,,-99.99,Weather View 32 v60,2013-01-22 10:05:00,
2013-01-22 05:10:00,18.6,16.9,29.73,SSW,203,0.0,0.0,93,0.00,,,-99.99,Weather View 32 v60,2013-01-22 10:10:00,
2013-01-22 05:15:00,18.5,16.8,29.73,SSW,203,0.0,0.0,93,0.00,,,-99.99,Weather View 32 v60,2013-01-22 10:15:00,
2013-01-22 05:20:00,18.5,16.8,29.73,SSW,203,0.0,0.0,93,0.00,,,-99.99,Weather View 32 v60,2013-01-22 10:20:00,
2013-01-22 05:25:00,18.4,16.7,29.73,SSW,203,0.0,0.0,93,0.00,,,-99.99,Weather View 32 v60,2013-01-22 10:25:00,
2013-01-22 05:35:00,19.3,17.6,29.72,SSW,203,0.0,3.0,93,0.00,,,-99.99,Weather View 32 v60,2013-01-22 10:35:00,
2013-01-22 05:50:00,18.9,17.2,29.73,SSW,203,0.0,0.0,93,0.00,,,-99.99,Weather View 32 v60,2013-01-22 10:50:00,
2013-01-22 06:10:00,18.4,16.7,29.74,North,0,1.0,6.0,93,0.00,,,-99.99,Weather View 32 v60,2013-01-22 11:10:00,
2013-01-22 06:11:00,18.6,16.9,29.73,SSW,203,0.0,0.0,93,0.00,,,-99.99,Weather View 32 v60,2013-01-22 11:11:00,
2013-01-22 06:30:00,18.3,16.6,29.73,SSW,203,0.0,0.0,93,0.00,,,-99.99,Weather View 32 v60,2013-01-22 11:30:00,
2013-01-22 06:40:00,18.1,16.4,29.74,WNW,293,2.0,4.0,93,0.00,,,-99.99,Weather View 32 v60,2013-01-22 11:40:00,
2013-01-22 06:49:00,18.1,16.4,29.74,NNW,338,1.0,4.0,93,0.00,,,-99.99,Weather View 32 v60,2013-01-22 11:49:00,
2013-01-22 06:55:00,18.1,16.4,29.74,NW,315,1.0,4.0,93,0.00,,,-99.99,Weather View 32 v60,2013-01-22 11:55:00,
2013-01-22 07:00:00,18.2,16.8,29.74,West,270,1.0,4.0,94,0.00,,,-99.99,Weather View 32 v60,2013-01-22 12:00:00,
2013-01-22 07:05:00,18.3,16.9,29.74,SSW,203,1.0,4.0,94,0.00,,,-99.99,Weather View 32 v60,2013-01-22 12:05:00,
2013-01-22 07:15:00,18.4,16.7,29.74,WNW,293,1.0,6.0,93,0.00,,,-99.99,Weather View 32 v60,2013-01-22 12:15:00,
2013-01-22 07:24:00,18.4,16.7,29.75,WNW,293,3.0,6.0,93,0.00,,,-99.99,Weather View 32 v60,2013-01-22 12:24:00,
2013-01-22 07:30:00,18.4,16.5,29.75,WNW,293,2.0,6.0,92,0.00,,,-99.99,Weather View 32 v60,2013-01-22 12:30:00,
2013-01-22 07:40:00,18.5,16.6,29.76,WNW,293,1.0,6.0,92,0.00,,,-99.99,Weather View 32 v60,2013-01-22 12:40:00,
2013-01-22 07:50:00,18.9,16.7,29.76,WSW,248,1.0,9.0,91,0.00,,,-99.99,Weather View 32 v60,2013-01-22 12:50:00,
2013-01-22 07:55:00,19.1,16.9,29.76,WNW,293,1.0,9.0,91,0.00,,,-99.99,Weather View 32 v60,2013-01-22 12:55:00,
2013-01-22 08:04:00,19.4,16.7,29.77,SW,225,3.0,9.0,89,0.00,,,-99.99,Weather View 32 v60,2013-01-22 13:04:00,
2013-01-22 08:10:00,19.4,16.7,29.77,NW,315,1.0,9.0,89,0.00,,,-99.99,Weather View 32 v60,2013-01-22 13:10:00,
2013-01-22 08:15:00,19.4,16.4,29.77,WNW,293,3.0,9.0,88,0.00,,,-99.99,Weather View 32 v60,2013-01-22 13:15:00,
2013-01-22 08:25:00,19.6,16.4,29.77,WNW,293,5.0,9.0,87,0.00,,,-99.99,Weather View 32 v60,2013-01-22 13:25:00,
2013-01-22 08:30:00,19.7,16.5,29.78,WNW,293,3.0,9.0,87,0.00,,,-99.99,Weather View 32 v60,2013-01-22 13:30:00,
2013-01-22 08:40:00,20.0,16.5,29.78,WNW,293,2.0,12.0,86,0.00,,,-99.99,Weather View 32 v60,2013-01-22 13:40:00,
2013-01-22 08:45:00,20.6,17.1,29.78,WNW,293,4.0,12.0,86,0.00,,,-99.99,Weather View 32 v60,2013-01-22 13:45:00,
2013-01-22 08:54:00,21.4,17.0,29.78,West,270,3.0,14.0,83,0.00,,,-99.99,Weather View 32 v60,2013-01-22 13:54:00,
2013-01-22 09:00:00,22.0,17.4,29.79,WNW,293,3.0,14.0,82,0.00,,,-99.99,Weather View 32 v60,2013-01-22 14:00:00,
2013-01-22 09:10:00,23.0,17.5,29.78,SSE,158,1.0,14.0,79,0.00,,,-99.99,Weather View 32 v60,2013-01-22 14:10:00,
2013-01-22 09:15:00,23.8,17.6,29.78,NNW,338,7.0,15.0,77,0.00,,,-99.99,Weather View 32 v60,2013-01-22 14:15:00,
2013-01-22 09:25:00,24.8,17.4,29.79,West,270,4.0,15.0,73,0.00,,,-99.99,Weather View 32 v60,2013-01-22 14:25:00,
2013-01-22 09:30:00,25.1,17.0,29.79,WNW,293,5.0,15.0,71,0.00,,,-99.99,Weather View 32 v60,2013-01-22 14:30:00,
2013-01-22 09:40:00,25.5,16.1,29.79,NW,315,5.0,15.0,67,0.00,,,-99.99,Weather View 32 v60,2013-01-22 14:40:00,
2013-01-22 09:45:00,25.7,15.9,29.79,NW,315,3.0,15.0,66,0.00,,,-99.99,Weather View 32 v60,2013-01-22 14:45:00,
2013-01-22 09:55:00,25.7,14.8,29.79,NNW,338,6.0,17.0,63,0.00,,,-99.99,Weather View 32 v60,2013-01-22 14:55:00,
2013-01-22 10:05:00,26.6,15.3,29.80,NNW,338,11.0,17.0,62,0.00,,,-99.99,Weather View 32 v60,2013-01-22 15:05:00,
2013-01-22 10:10:00,27.0,15.3,29.80,WNW,293,4.0,17.0,61,0.00,,,-99.99,Weather View 32 v60,2013-01-22 15:10:00,
2013-01-22 10:15:00,27.2,15.1,29.80,WNW,293,6.0,17.0,60,0.00,,,-99.99,Weather View 32 v60,2013-01-22 15:15:00,
2013-01-22 10:25:00,27.4,14.2,29.80,WNW,293,3.0,17.0,57,0.00,,,-99.99,Weather View 32 v60,2013-01-22 15:25:00,
2013-01-22 10:30:00,27.6,13.9,29.80,North,0,6.0,17.0,56,0.00,,,-99.99,Weather View 32 v60,2013-01-22 15:30:00,
2013-01-22 10:40:00,27.8,13.3,29.80,NNW,338,2.0,18.0,54,0.00,,,-99.99,Weather View 32 v60,2013-01-22 15:40:00,
2013-01-22 10:45:00,27.8,13.3,29.80,WNW,293,12.0,18.0,54,0.00,,,-99.99,Weather View 32 v60,2013-01-22 15:45:00,
2013-01-22 10:55:00,27.2,12.3,29.80,NNW,338,6.0,18.0,53,0.00,,,-99.99,Weather View 32 v60,2013-01-22 15:55:00,
2013-01-22 11:04:00,27.5,12.6,29.80,NW,315,5.0,18.0,53,0.00,,,-99.99,Weather View 32 v60,2013-01-22 16:04:00,
2013-01-22 11:10:00,27.1,12.7,29.80,ESE,113,2.0,18.0,54,0.00,,,-99.99,Weather View 32 v60,2013-01-22 16:10:00,
2013-01-22 11:15:00,27.8,13.3,29.80,NW,315,6.0,18.0,54,0.00,,,-99.99,Weather View 32 v60,2013-01-22 16:15:00,
2013-01-22 11:25:00,29.1,14.1,29.79,NNW,338,8.0,18.0,53,0.00,,,-99.99,Weather View 32 v60,2013-01-22 16:25:00,
2013-01-22 11:30:00,28.8,13.8,29.79,WNW,293,4.0,18.0,53,0.00,,,-99.99,Weather View 32 v60,2013-01-22 16:30:00,
2013-01-22 11:35:00,28.9,13.9,29.79,NW,315,2.0,18.0,53,0.00,,,-99.99,Weather View 32 v60,2013-01-22 16:35:00,
2013-01-22 11:40:00,28.0,13.1,29.79,WNW,293,4.0,14.0,53,0.00,,,-99.99,Weather View 32 v60,2013-01-22 16:40:00,
2013-01-22 11:49:00,27.0,12.1,29.79,NNW,338,9.0,13.0,53,0.00,,,-99.99,Weather View 32 v60,2013-01-22 16:49:00,
2013-01-22 11:55:00,26.6,11.8,29.79,WNW,293,6.0,13.0,53,0.00,,,-99.99,Weather View 32 v60,2013-01-22 16:55:00,
2013-01-22 12:00:00,26.1,11.3,29.79,NW,315,3.0,13.0,53,0.00,,,-99.99,Weather View 32 v60,2013-01-22 17:00:00,
2013-01-22 12:10:00,24.7,10.0,29.79,NW,315,5.0,13.0,53,0.00,,,-99.99,Weather View 32 v60,2013-01-22 17:10:00,
2013-01-22 12:15:00,24.6,10.3,29.79,WNW,293,4.0,13.0,54,0.00,,,-99.99,Weather View 32 v60,2013-01-22 17:15:00,
2013-01-22 12:25:00,24.4,10.1,29.79,NNW,338,4.0,13.0,54,0.00,,,-99.99,Weather View 32 v60,2013-01-22 17:25:00,
2013-01-22 12:35:00,24.5,9.8,29.79,West,270,4.0,12.0,53,0.00,,,-99.99,Weather View 32 v60,2013-01-22 17:35:00,
2013-01-22 12:45:00,24.4,10.1,29.79,NW,315,5.0,12.0,54,0.00,,,-99.99,Weather View 32 v60,2013-01-22 17:45:00,
2013-01-22 12:55:00,24.5,9.8,29.79,NW,315,6.0,12.0,53,0.00,,,-99.99,Weather View 32 v60,2013-01-22 17:55:00,
2013-01-22 13:04:00,25.1,9.9,29.79,NW,315,6.0,14.0,52,0.00,,,-99.99,Weather View 32 v60,2013-01-22 18:04:00,
2013-01-22 13:10:00,25.2,10.0,29.79,NW,315,5.0,14.0,52,0.00,,,-99.99,Weather View 32 v60,2013-01-22 18:10:00,
2013-01-22 13:15:00,25.6,10.8,29.80,West,270,2.0,14.0,53,0.00,,,-99.99,Weather View 32 v60,2013-01-22 18:15:00,
2013-01-22 13:25:00,26.6,10.9,29.80,WNW,293,3.0,14.0,51,0.00,,,-99.99,Weather View 32 v60,2013-01-22 18:25:00,
2013-01-22 13:30:00,26.7,10.5,29.80,SSW,203,3.0,14.0,50,0.00,,,-99.99,Weather View 32 v60,2013-01-22 18:30:00,
2013-01-22 13:39:00,25.7,9.6,29.80,WNW,293,5.0,14.0,50,0.00,,,-99.99,Weather View 32 v60,2013-01-22 18:39:00,
2013-01-22 13:45:00,25.1,9.1,29.80,WNW,293,7.0,14.0,50,0.00,,,-99.99,Weather View 32 v60,2013-01-22 18:45:00,
2013-01-22 13:55:00,23.8,7.4,29.81,North,0,4.0,14.0,49,0.00,,,-99.99,Weather View 32 v60,2013-01-22 18:55:00,
2013-01-22 14:05:00,23.8,7.9,29.81,West,270,6.0,14.0,50,0.00,,,-99.99,Weather View 32 v60,2013-01-22 19:05:00,
2013-01-22 14:15:00,24.1,8.1,29.82,NW,315,6.0,14.0,50,0.00,,,-99.99,Weather View 32 v60,2013-01-22 19:15:00,
2013-01-22 14:25:00,24.4,8.0,29.82,WNW,293,3.0,14.0,49,0.00,,,-99.99,Weather View 32 v60,2013-01-22 19:25:00,
2013-01-22 14:34:00,24.1,7.2,29.83,NW,315,4.0,14.0,48,0.00,,,-99.99,Weather View 32 v60,2013-01-22 19:34:00,
2013-01-22 14:40:00,23.6,7.2,29.83,NNW,338,5.0,14.0,49,0.00,,,-99.99,Weather View 32 v60,2013-01-22 19:40:00,
2013-01-22 14:45:00,23.2,7.3,29.83,WNW,293,5.0,14.0,50,0.00,,,-99.99,Weather View 32 v60,2013-01-22 19:45:00,
2013-01-22 14:55:00,22.6,6.8,29.83,WNW,293,3.0,13.0,50,0.00,,,-99.99,Weather View 32 v60,2013-01-22 19:55:00,
2013-01-22 15:00:00,22.4,6.6,29.83,NNW,338,11.0,13.0,50,0.00,,,-99.99,Weather View 32 v60,2013-01-22 20:00:00,
2013-01-22 15:10:00,22.4,6.6,29.83,WNW,293,6.0,13.0,50,0.00,,,-99.99,Weather View 32 v60,2013-01-22 20:10:00,
2013-01-22 15:16:00,22.5,6.7,29.84,NW,315,5.0,13.0,50,0.00,,,-99.99,Weather View 32 v60,2013-01-22 20:16:00,
2013-01-22 15:25:00,22.9,7.0,29.84,West,270,2.0,13.0,50,0.00,,,-99.99,Weather View 32 v60,2013-01-22 20:25:00,
2013-01-22 15:30:00,23.0,7.1,29.84,WNW,293,4.0,13.0,50,0.00,,,-99.99,Weather View 32 v60,2013-01-22 20:30:00,
2013-01-22 15:40:00,23.2,6.4,29.84,WNW,293,6.0,14.0,48,0.00,,,-99.99,Weather View 32 v60,2013-01-22 20:40:00,
2013-01-22 15:45:00,23.0,6.2,29.84,NNW,338,3.0,14.0,48,0.00,,,-99.99,Weather View 32 v60,2013-01-22 20:45:00,
2013-01-22 15:50:00,19.2,4.5,29.87,ENE,68,3.0,12.0,52,0.00,,,-99.99,Weather View 32 v60,2013-01-22 20:50:00,
2013-01-22 15:55:00,22.4,5.7,29.85,SSW,203,3.0,14.0,48,0.00,,,-99.99,Weather View 32 v60,2013-01-22 20:55:00,
2013-01-22 16:00:00,22.0,5.8,29.85,West,270,3.0,14.0,49,0.00,,,-99.99,Weather View 32 v60,2013-01-22 21:00:00,
2013-01-22 16:05:00,21.7,5.5,29.85,WNW,293,8.0,14.0,49,0.00,,,-99.99,Weather View 32 v60,2013-01-22 21:05:00,
2013-01-22 16:10:00,21.5,5.3,29.86,WNW,293,5.0,14.0,49,0.00,,,-99.99,Weather View 32 v60,2013-01-22 21:10:00,
2013-01-22 16:15:00,21.2,5.5,29.86,West,270,1.0,14.0,50,0.00,,,-99.99,Weather View 32 v60,2013-01-22 21:15:00,
2013-01-22 16:25:00,20.6,4.9,29.87,WNW,293,5.0,14.0,50,0.00,,,-99.99,Weather View 32 v60,2013-01-22 21:25:00,
2013-01-22 16:30:00,20.3,4.6,29.87,South,180,3.0,14.0,50,0.00,,,-99.99,Weather View 32 v60,2013-01-22 21:30:00,
2013-01-22 16:35:00,17.9,3.7,29.91,NW,315,3.0,11.0,53,0.00,,,-99.99,Weather View 32 v60,2013-01-22 21:35:00,
2013-01-22 16:40:00,19.8,5.0,29.87,WNW,293,4.0,13.0,52,0.00,,,-99.99,Weather View 32 v60,2013-01-22 21:40:00,
2013-01-22 16:45:00,19.5,4.7,29.87,WNW,293,5.0,13.0,52,0.00,,,-99.99,Weather View 32 v60,2013-01-22 21:45:00,
2013-01-22 16:50:00,17.4,4.0,29.92,SW,225,2.0,11.0,55,0.00,,,-99.99,Weather View 32 v60,2013-01-22 21:50:00,
2013-01-22 16:55:00,19.1,4.4,29.87,South,180,3.0,12.0,52,0.00,,,-99.99,Weather View 32 v60,2013-01-22 21:55:00,
2013-01-22 17:00:00,17.1,3.7,29.92,WSW,248,1.0,11.0,55,0.00,,,-99.99,Weather View 32 v60,2013-01-22 22:00:00,
2013-01-22 17:04:00,18.7,4.4,29.88,NW,315,3.0,12.0,53,0.00,,,-99.99,Weather View 32 v60,2013-01-22 22:04:00,
2013-01-22 17:10:00,18.6,4.7,29.89,West,270,3.0,12.0,54,0.00,,,-99.99,Weather View 32 v60,2013-01-22 22:10:00,
2013-01-22 17:15:00,18.5,4.6,29.89,WNW,293,3.0,12.0,54,0.00,,,-99.99,Weather View 32 v60,2013-01-22 22:15:00,
2013-01-22 17:25:00,18.2,3.9,29.90,WNW,293,3.0,12.0,53,0.00,,,-99.99,Weather View 32 v60,2013-01-22 22:25:00,
2013-01-22 17:30:00,18.1,3.8,29.90,NNW,338,3.0,11.0,53,0.00,,,-99.99,Weather View 32 v60,2013-01-22 22:30:00,
2013-01-22 17:35:00,16.4,3.4,29.95,WNW,293,4.0,14.0,56,0.00,,,-99.99,Weather View 32 v60,2013-01-22 22:35:00,
2013-01-22 17:45:00,17.6,3.8,29.92,WNW,293,3.0,11.0,54,0.00,,,-99.99,Weather View 32 v60,2013-01-22 22:45:00,
2013-01-22 17:55:00,15.9,3.4,29.95,West,270,0.0,14.0,57,0.00,,,-99.99,Weather View 32 v60,2013-01-22 22:55:00,
2013-01-22 18:04:00,17.0,3.6,29.92,SSW,203,6.0,11.0,55,0.00,,,-99.99,Weather View 32 v60,2013-01-22 23:04:00,
2013-01-22 18:10:00,16.8,3.4,29.92,WNW,293,4.0,11.0,55,0.00,,,-99.99,Weather View 32 v60,2013-01-22 23:10:00,
2013-01-22 18:15:00,16.8,3.4,29.93,WNW,293,6.0,14.0,55,0.00,,,-99.99,Weather View 32 v60,2013-01-22 23:15:00,
2013-01-22 18:30:00,16.5,3.5,29.94,West,270,3.0,14.0,56,0.00,,,-99.99,Weather View 32 v60,2013-01-22 23:30:00,
2013-01-22 18:35:00,15.3,3.5,29.96,WNW,293,0.0,9.0,59,0.00,,,-99.99,Weather View 32 v60,2013-01-22 23:35:00,
2013-01-22 18:40:00,16.3,3.4,29.95,WSW,248,0.0,14.0,56,0.00,,,-99.99,Weather View 32 v60,2013-01-22 23:40:00,
2013-01-22 18:49:00,16.0,3.5,29.95,WNW,293,4.0,14.0,57,0.00,,,-99.99,Weather View 32 v60,2013-01-22 23:49:00,
2013-01-22 18:55:00,15.1,3.4,29.97,WNW,293,4.0,8.0,59,0.00,,,-99.99,Weather View 32 v60,2013-01-22 23:55:00,
2013-01-22 19:00:00,15.8,3.6,29.95,NW,315,0.0,14.0,58,0.00,,,-99.99,Weather View 32 v60,2013-01-23 00:00:00,
2013-01-22 19:05:00,15.0,3.3,29.97,WNW,293,0.0,8.0,59,0.00,,,-99.99,Weather View 32 v60,2013-01-23 00:05:00,
2013-01-22 19:10:00,15.6,3.5,29.96,WNW,293,6.0,14.0,58,0.00,,,-99.99,Weather View 32 v60,2013-01-23 00:10:00,
2013-01-22 19:15:00,15.5,3.4,29.96,WNW,293,1.0,13.0,58,0.00,,,-99.99,Weather View 32 v60,2013-01-23 00:15:00,
2013-01-22 19:25:00,15.3,3.5,29.96,West,270,0.0,9.0,59,0.00,,,-99.99,Weather View 32 v60,2013-01-23 00:25:00,
2013-01-22 19:35:00,14.5,3.1,29.98,WNW,293,0.0,8.0,60,0.00,,,-99.99,Weather View 32 v60,2013-01-23 00:35:00,
2013-01-22 19:45:00,15.1,3.4,29.97,NW,315,3.0,9.0,59,0.00,,,-99.99,Weather View 32 v60,2013-01-23 00:45:00,
2013-01-22 20:00:00,15.0,3.3,29.97,WNW,293,0.0,8.0,59,0.00,,,-99.99,Weather View 32 v60,2013-01-23 01:00:00,
2013-01-22 20:10:00,14.9,3.5,29.97,NW,315,0.0,8.0,60,0.00,,,-99.99,Weather View 32 v60,2013-01-23 01:10:00,
2013-01-22 20:15:00,14.9,3.5,29.97,WNW,293,0.0,8.0,60,0.00,,,-99.99,Weather View 32 v60,2013-01-23 01:15:00,
2013-01-22 20:20:00,13.5,3.3,29.98,NW,315,0.0,7.0,63,0.00,,,-99.99,Weather View 32 v60,2013-01-23 01:20:00,
2013-01-22 20:25:00,14.7,3.3,29.97,WSW,248,0.0,8.0,60,0.00,,,-99.99,Weather View 32 v60,2013-01-23 01:25:00,
2013-01-22 20:30:00,14.6,3.6,29.98,WNW,293,3.0,8.0,61,0.00,,,-99.99,Weather View 32 v60,2013-01-23 01:30:00,
2013-01-22 20:35:00,13.3,3.7,29.99,WNW,293,0.0,7.0,65,0.00,,,-99.99,Weather View 32 v60,2013-01-23 01:35:00,
2013-01-22 20:40:00,14.4,3.4,29.98,West,270,0.0,8.0,61,0.00,,,-99.99,Weather View 32 v60,2013-01-23 01:40:00,
2013-01-22 20:49:00,14.2,3.2,29.98,West,270,0.0,8.0,61,0.00,,,-99.99,Weather View 32 v60,2013-01-23 01:49:00,
2013-01-22 20:55:00,14.1,3.1,29.98,WSW,248,0.0,8.0,61,0.00,,,-99.99,Weather View 32 v60,2013-01-23 01:55:00,
2013-01-22 21:00:00,14.0,3.4,29.98,WNW,293,0.0,8.0,62,0.00,,,-99.99,Weather View 32 v60,2013-01-23 02:00:00,
2013-01-22 21:09:00,13.8,3.2,29.98,North,0,0.0,8.0,62,0.00,,,-99.99,Weather View 32 v60,2013-01-23 02:09:00,
2013-01-22 21:10:00,12.7,3.8,30.00,WSW,248,0.0,6.0,67,0.00,,,-99.99,Weather View 32 v60,2013-01-23 02:10:00,
2013-01-22 21:15:00,13.7,3.4,29.98,NNW,338,0.0,8.0,63,0.00,,,-99.99,Weather View 32 v60,2013-01-23 02:15:00,
2013-01-22 21:25:00,13.4,3.5,29.98,NNW,338,0.0,7.0,64,0.00,,,-99.99,Weather View 32 v60,2013-01-23 02:25:00,
2013-01-22 21:40:00,13.3,3.7,29.99,West,270,0.0,7.0,65,0.00,,,-99.99,Weather View 32 v60,2013-01-23 02:40:00,
2013-01-22 21:45:00,13.2,3.6,29.99,WNW,293,0.0,7.0,65,0.00,,,-99.99,Weather View 32 v60,2013-01-23 02:45:00,
2013-01-22 21:55:00,13.0,3.8,30.00,WSW,248,0.0,6.0,66,0.00,,,-99.99,Weather View 32 v60,2013-01-23 02:55:00,
2013-01-22 22:00:00,12.9,3.7,29.99,WSW,248,0.0,6.0,66,0.00,,,-99.99,Weather View 32 v60,2013-01-23 03:00:00,
2013-01-22 22:15:00,12.6,3.7,30.00,SW,225,0.0,6.0,67,0.00,,,-99.99,Weather View 32 v60,2013-01-23 03:15:00,
2013-01-22 22:20:00,12.4,3.5,30.00,SW,225,0.0,6.0,67,0.00,,,-99.99,Weather View 32 v60,2013-01-23 03:20:00,
2013-01-22 22:30:00,12.2,3.7,30.00,SW,225,0.0,4.0,68,0.00,,,-99.99,Weather View 32 v60,2013-01-23 03:30:00,
2013-01-22 22:40:00,11.9,3.4,30.01,SW,225,0.0,3.0,68,0.00,,,-99.99,Weather View 32 v60,2013-01-23 03:40:00,
2013-01-22 22:50:00,11.7,3.5,30.01,West,270,0.0,3.0,69,0.00,,,-99.99,Weather View 32 v60,2013-01-23 03:50:00,
2013-01-22 23:00:00,11.5,3.6,30.01,SW,225,0.0,2.0,70,0.00,,,-99.99,Weather View 32 v60,2013-01-23 04:00:00,
2013-01-22 23:05:00,11.3,3.4,30.02,NNW,338,0.0,13.0,70,0.00,,,-99.99,Weather View 32 v60,2013-01-23 04:05:00,
2013-01-22 23:10:00,11.5,3.9,30.02,SW,225,0.0,2.0,71,0.00,,,-99.99,Weather View 32 v60,2013-01-23 04:10:00,
2013-01-22 23:15:00,11.5,3.9,30.02,North,0,0.0,6.0,71,0.00,,,-99.99,Weather View 32 v60,2013-01-23 04:15:00,
2013-01-22 23:20:00,11.0,2.5,30.02,NW,315,0.0,13.0,68,0.00,,,-99.99,Weather View 32 v60,2013-01-23 04:20:00,
2013-01-22 23:25:00,11.5,4.2,30.02,WSW,248,0.0,6.0,72,0.00,,,-99.99,Weather View 32 v60,2013-01-23 04:25:00,
2013-01-22 23:30:00,11.5,4.2,30.02,NW,315,2.0,6.0,72,0.00,,,-99.99,Weather View 32 v60,2013-01-23 04:30:00,
2013-01-22 23:35:00,10.7,1.9,30.01,WSW,248,0.0,13.0,67,0.00,,,-99.99,Weather View 32 v60,2013-01-23 04:35:00,
2013-01-22 23:39:00,11.4,4.1,30.02,ENE,68,1.0,6.0,72,0.00,,,-99.99,Weather View 32 v60,2013-01-23 04:39:00,
2013-01-22 23:40:00,10.5,1.7,30.01,WSW,248,0.0,13.0,67,0.00,,,-99.99,Weather View 32 v60,2013-01-23 04:40:00,
2013-01-22 23:45:00,11.4,4.1,30.02,WNW,293,0.0,6.0,72,0.00,,,-99.99,Weather View 32 v60,2013-01-23 04:45:00,
2013-01-22 23:50:00,10.3,1.5,30.02,North,0,0.0,13.0,67,0.00,,,-99.99,Weather View 32 v60,2013-01-23 04:50:00,
2013-01-22 23:55:00,11.3,3.7,30.02,WSW,248,0.0,6.0,71,0.00,,,-99.99,Weather View 32 v60,2013-01-23 04:55:00,